Warning: Javascript must be enabled to use all the features on this page!


Page Loading - Please Wait...

Click to hideNews Bulletins

Peak Streamflow for the Nation

USGS 07014500 Meramec River near Sullivan, MO

Crawford County, Missouri
Hydrologic Unit Code 07140102
Latitude  38°09'30.7", Longitude  91°06'30.5" NAD83
Drainage area 1,475  square miles
Gage datum 582.16 feet above NAVD88
Output formats
Table
Graph
Tab-separated file
peakfq (watstore) format
Reselect output format
Water
Year
Date Gage
Height
(feet)
Stream-
flow
(cfs)
1915 1915-08 33.50Bd 90,0007,Bd
1922 1922-04-17 16.80 18,400
1923 1923-03-16 14.15 12,600
1924 1924-04-09 17.25 19,400
1925 1924-12-20 16.00 16,500
1926 1925-11-08 14.60 13,400
1927 1927-06-02 22.89 35,300
1928 1928-06-11 20.30 27,800
1929 1929-05-07 18.20 22,000
1930 1930-01-14 18.20 22,000
1931 1931-04-27 5.56 2,3004
1932 1931-11-20 7.75 3,800
1933 1933-05-14 22.00 32,700
1944 1944-05-04 17.00 19,000
1945 1945-06-09 32.00 77,300
1946 1946-02-14 19.08 23,900
1947 1947-04-26 24.80 40,500
1948 1948-01-02 14.60 13,200
1949 1949-02-15 20.30 27,000
1950 1950-01-04 25.50 42,800
1951 1951-07-14 21.30 29,800
1952 1952-04-13 15.00 14,000
1953 1953-03-04 12.05 8,590
1954 1954-06-10 11.70 8,190
1955 1955-03-21 15.58 16,100
1956 1956-05-16 11.00 8,060
1957 1957-06-30 22.61 33,700
1958 1958-03-25 18.86 23,900
1959 1959-03-12 8.06 4,490
1960 1959-12-29 13.94 12,100
1961 1961-05-09 22.43 33,200
1962 1962-03-21 17.91 21,500
1963 1963-05-28 14.91 14,700
1964 1964-04-06 16.17 17,600
1965 1965-04-07 15.22 15,300
1966 1966-02-10 25.66 45,000
1967 1967-05-15 15.28 15,400
1968 1967-12-22 18.69 23,200
1969 1969-01-30 27.02 50,000
1970 1970-05-02 14.48 14,200
1971 1971-05-25 10.08 6,800
1972 1972-04-16 17.19 19,500
1973 1973-04-23 16.44 17,900
1974 1973-11-26 19.24 24,500
1975 1975-01-11 20.12 26,900
1976 1976-06-02 7.18 3,610
1977 1977-03-29 19.06 24,100
1978 1978-03-25 16.00 16,900
1979 1979-04-12 25.41 44,000
1980 1980-03-31 6.27 2,880
1981 1981-05-20 15.82 16,500
1982 1982-01-31 18.46 22,500
1983 1982-12-04 32.22 67,700
1984 1984-04-22 14.62 13,600
1985 1985-06-19 27.50 49,100
1986 1985-11-19 27.95 50,900
1987 1986-10-02 16.62 17,700
1988 1987-12-21 17.31 19,200
1989 1988-11-21 10.28 7,020
1990 1990-05-04 17.17 19,700
1991 1990-12-30 18.98 23,100
1992 1992-04-21 20.05 27,500
1993 1993-09-26 22.14 34,200
1994 1994-04-12 29.23 56,400
1995 1995-05-18 20.62 27,900
1996 1996-04-29 18.81 23,300
1997 1997-02-27 17.34 19,800
1998 1998-07-27 27.42 49,100
1999 1999-02-08 18.32 23,500
2000 2000-05-27 5.87 2,950
2001 2001-02-25 13.59 13,100
2002 2002-05-18 21.78 33,800
2003 2003-05-08 13.94 14,800
2004 2004-03-06 12.01 11,400
2005 2005-01-14 16.34 19,900
2006 2006-03-13 17.32 22,200
2007 2007-04-15 11.26 10,200
2008 2008-03-20 31.69 66,900
2009 2009-05-09 21.29 32,400
2010 2009-10-31 20.44 30,100
2011 2011-04-28 18.66 25,500
2012 2012-03-16 14.44 15,800
2013 2013-03-18 19.75 28,300
2014 2014-04-03 8.91 6,910
2015 2015-06-20 17.66 25,000
2016 2015-12-29 31.46 66,000
2017 2017-05-01 36.38 95,3002
2018 2018-02-25 20.67 31,000
2019 2019-05-02 14.52 16,900
2020 2020-01-12 19.14 27,700
2021 2021-03-13 14.82 17,600
2022 2022-02-18 17.39 23,400
2023 2023-03-25 20.51 32,200
?
  Peak Gage-Height Qualification Codes.
?
  Peak Streamflow Qualification Codes.